Main page
METAR-TAF:

METAR-TAF

Airports :

Tours Val de Loire Airport

Tours, France

latitude: 47-27N, longitude: 000-43E, elevation: 108 m

Current weather observation

The report was made 25 minutes ago, at 15:00 UTC
Wind 10 kt from the East/Southeast, varying between East and South/Southeast
Temperature 18°C
Humidity 37%
Pressure 1017 hPa
Visibility 10 km or more
no clouds below 1500 m and no cumulonimbus

METAR: LFOT 041500Z AUTO 12010KT 090V150 CAVOK 18/03 Q1017 NOSIG

Time: 17:25 (15:25 UTC)

Forecast

The report was made 4 hours and 25 minutes ago, at 11:00 UTC
Forecast valid from 04 at 12 UTC to 05 at 12 UTC
Wind 10 kt from the East/Southeast
Visibility 10 km or more
no clouds below 1500 m and no cumulonimbus
Becoming
from 05 at 09 UTC to 05 at 11 UTC
Wind 10 kt from the South

TAF: LFOT 041100Z 0412/0512 11010KT CAVOK BECMG 0509/0511 17010KT

Weather observations and forecasts of more than 4000 airports (METAR and TAF reports).

The available stations are represented by yellow and red dots on the map.

Hover mouse over dot to see the name of the station.

Then click to see weather observations and forecasts.

To change the map : click on the green buttons with a black cross to zoom in, on the green button with a dash to zoom out, or on the green arrows for adjacent maps.


METAR-TAF: